Missao Velha, Brazil
Current Conditions -  °F | °C
As of 11:00 AM on Tuesday 21 Oct 2014 (Local Time) from SBJU Reporting Station
Broken Clouds Broken Clouds  
Wind Chill: 86°   Ceiling: 2300
Heat Index: 90°   Visibility: 6mi
Dew Point: 70°   Wind: 3mph
Humidity: 58%   Direction: 40°NE
Pressure: 30.03"   Gusts: NA
Location:  7.25°S, 39.14°W
Report Text: SBJU 211400Z 04003KT 9999 BKN023 30/21 Q1017
Loading
Personal Weather Stations






























Interactive Weather Map
Tropical Storm Tracking
New forecast layout! Learn more

10-Day Weather Forecast

Advertisements
Track Severe Weather on mobile